Lathams Corners, New York
Current Conditions -  °F | °C
As of 4:53 PM on Tuesday 25 Nov 2014 (Local Time) from KBGM Reporting Station
Clear Clear  
Wind Chill: 37°   Ceiling: Unl
Heat Index: 42°   Visibility: 10mi
Dew Point: 25°   Wind: 8mph
Humidity: 51%   Direction: 240°WSW
Pressure: 29.97"   Gusts: NA
Location:  42.5358°N, 75.3475°W
Report Text: KBGM 252153Z 24007KT 10SM CLR 06/M04 A2997 RMK AO2 SLP156 T00561039
Loading
Personal Weather Stations






























Interactive Weather Map New forecast layout! Learn more

10-Day Weather Forecast

Advertisements
Track Severe Weather on mobile